createdAt,value
2019-01-30T00:06:48.387Z,938.1
2019-01-30T00:16:52.070Z,937.9
2019-01-30T00:26:55.866Z,937.7
2019-01-30T00:36:59.512Z,937.6
2019-01-30T00:47:03.203Z,937.4
2019-01-30T00:57:06.901Z,937.1
2019-01-30T01:07:10.619Z,937
2019-01-30T01:17:14.286Z,937
2019-01-30T01:27:17.938Z,937
2019-01-30T01:37:21.580Z,936.9
2019-01-30T01:47:25.256Z,936.9
2019-01-30T01:57:28.931Z,936.8
2019-01-30T02:07:32.591Z,936.8
2019-01-30T02:17:36.255Z,936.8
2019-01-30T02:27:39.998Z,936.8
2019-01-30T02:37:43.764Z,936.6
2019-01-30T02:47:47.447Z,936.3
2019-01-30T02:57:51.138Z,936.4
2019-01-30T03:07:54.850Z,936.1
2019-01-30T03:17:58.530Z,936.2
2019-01-30T03:28:02.302Z,936.3
2019-01-30T03:38:05.951Z,936.4
2019-01-30T03:48:09.602Z,936.2
2019-01-30T03:58:13.268Z,936.4
2019-01-30T04:08:16.922Z,936.1
2019-01-30T04:18:20.643Z,936
2019-01-30T04:28:24.342Z,936.2
2019-01-30T04:38:28.018Z,936.4
2019-01-30T04:48:31.684Z,936
2019-01-30T04:58:35.364Z,936.2
2019-01-30T05:08:39.047Z,936.1
2019-01-30T05:18:42.733Z,936.3
2019-01-30T05:28:46.423Z,936.5
2019-01-30T05:38:50.098Z,936.5
2019-01-30T05:48:53.773Z,936.6
2019-01-30T05:58:57.448Z,936.5
2019-01-30T06:09:01.149Z,936.3
2019-01-30T06:19:04.829Z,936.2
2019-01-30T06:29:08.503Z,935.5
2019-01-30T06:39:12.159Z,938.6
2019-01-30T06:49:15.823Z,937.9
2019-01-30T06:59:19.486Z,937.7
2019-01-30T07:09:23.138Z,937.5
2019-01-30T07:19:26.785Z,937.2
2019-01-30T07:29:30.450Z,937
2019-01-30T07:39:34.109Z,937
2019-01-30T07:49:37.807Z,937
2019-01-30T07:59:41.479Z,936.9
2019-01-30T08:09:45.140Z,936.9
2019-01-30T08:19:48.817Z,937.2
2019-01-30T08:29:54.042Z,937.2
2019-01-30T08:39:57.841Z,937.4
2019-01-30T08:50:01.548Z,937.4
2019-01-30T09:00:05.198Z,937.9
2019-01-30T09:10:08.860Z,938
2019-01-30T09:20:12.533Z,938.5
2019-01-30T09:30:16.218Z,938.8
2019-01-30T09:40:19.979Z,938.8
2019-01-30T09:50:23.707Z,939
2019-01-30T10:00:27.388Z,939.1
2019-01-30T10:10:31.038Z,939.2
2019-01-30T10:20:34.715Z,939.6
2019-01-30T10:30:38.409Z,939.8
2019-01-30T10:40:42.098Z,939.8
2019-01-30T10:50:45.806Z,940.1
2019-01-30T11:00:49.482Z,940.4
2019-01-30T11:10:53.160Z,940.5
2019-01-30T11:20:56.834Z,940.7
2019-01-30T11:31:00.511Z,940.6
2019-01-30T11:41:04.195Z,940.8
2019-01-30T11:51:07.872Z,940.8
2019-01-30T12:01:11.544Z,940.9
2019-01-30T12:11:15.254Z,941
2019-01-30T12:21:18.904Z,940.8
2019-01-30T12:31:22.551Z,940.7
2019-01-30T12:41:26.214Z,940.9
2019-01-30T12:51:29.876Z,940.8
2019-01-30T13:01:33.552Z,940.8
2019-01-30T13:11:37.195Z,941
2019-01-30T13:21:40.860Z,940.9
2019-01-30T13:31:44.525Z,940.8
2019-01-30T13:41:48.165Z,941
2019-01-30T13:51:51.813Z,941
2019-01-30T14:01:55.532Z,941
2019-01-30T14:11:59.256Z,941.3
2019-01-30T14:22:03.030Z,941.2
2019-01-30T14:32:07.829Z,941.4
2019-01-30T14:42:11.582Z,941.4
2019-01-30T14:52:15.312Z,941.4
2019-01-30T15:02:19.011Z,941.3
2019-01-30T15:12:22.839Z,941.3
2019-01-30T15:22:26.498Z,941.2
2019-01-30T15:32:32.308Z,941.2
2019-01-30T15:42:35.982Z,941.3
2019-01-30T15:52:39.609Z,941.4
2019-01-30T16:02:43.287Z,941.8
2019-01-30T16:12:47.091Z,942.1
2019-01-30T16:22:50.749Z,942.2
2019-01-30T16:32:54.418Z,942.4
2019-01-30T16:42:58.103Z,942.9
2019-01-30T16:53:01.738Z,943.2
2019-01-30T17:03:05.438Z,943.3
2019-01-30T17:13:09.119Z,943.4
2019-01-30T17:23:12.892Z,943.4
2019-01-30T17:33:16.573Z,943.5
2019-01-30T17:43:20.257Z,943.6
2019-01-30T17:53:29.921Z,944
2019-01-30T18:03:33.596Z,944.2
2019-01-30T18:13:37.273Z,944.4
2019-01-30T18:23:41.045Z,944.4
2019-01-30T18:33:44.719Z,944.4
2019-01-30T18:43:48.400Z,944.5
2019-01-30T18:53:52.021Z,944.5
2019-01-30T19:03:55.694Z,944.5
2019-01-30T19:13:59.369Z,944.4
2019-01-30T19:24:03.052Z,944.4
2019-01-30T19:34:06.727Z,944.4
2019-01-30T19:44:11.874Z,944.4
2019-01-30T19:54:15.528Z,944.4
2019-01-30T20:04:19.202Z,944.4
2019-01-30T20:14:22.874Z,944.5
2019-01-30T20:24:26.561Z,944.4
2019-01-30T20:34:30.245Z,944.2
2019-01-30T20:44:33.924Z,944
2019-01-30T20:54:37.581Z,943.7
2019-01-30T21:04:41.266Z,943.7
2019-01-30T21:14:44.946Z,943.6
2019-01-30T21:24:48.627Z,943.7
2019-01-30T21:34:52.298Z,943.7
2019-01-30T21:44:55.980Z,943.8
2019-01-30T21:54:59.655Z,943.9
2019-01-30T22:05:03.356Z,944.1
2019-01-30T22:15:07.034Z,944.2
2019-01-30T22:25:21.249Z,943.9
2019-01-30T22:35:24.915Z,943.5
2019-01-30T22:45:28.591Z,943.1
2019-01-30T22:55:32.237Z,942.7
2019-01-30T23:05:35.909Z,942.4
2019-01-30T23:15:39.599Z,942.1
2019-01-30T23:25:43.259Z,941.8
2019-01-30T23:35:46.940Z,941.5
2019-01-30T23:45:50.668Z,941.3
2019-01-30T23:55:54.421Z,941.1
